M Y Odessa — ZCYV3 — position and weather

sailwx.info

Track history (hours):
 
Tides and Currents Weather Stations Pressure Air Temp Water Temp Dewpoint Dewpoint Depression Visibility Wind Speed Wind Dir Waves Ship Positions

M Y Odessa

Last reported at 2017-Apr-26 09:29 UTC. Time now 2017-Apr-26 09:54 UTC.
Position N 26°04' W 080°08'.

Length 48 m; draft 2.4 m.

Type: Pleasure craft. MMSI: 319010700.

Date/timePositionNaut miles runAvg speedWind from/ knotsBaromVisibWave heightAir tempDewpointWater temp
2017-Apr-26 09:29N 26°04' W 080°08'0 0.0
2017-Apr-26 08:59N 26°04' W 080°08'0 0.0
2017-Apr-26 08:29N 26°04' W 080°08'0 0.0
2017-Apr-26 07:59N 26°04' W 080°08'0 0.0
2017-Apr-26 07:20N 26°04' W 080°08'0 0.0
2017-Apr-26 06:50N 26°04' W 080°08'0 0.0
2017-Apr-26 06:26N 26°04' W 080°08'0 0.0
2017-Apr-26 05:56N 26°04' W 080°08'0 0.0
2017-Apr-26 05:29N 26°04' W 080°08'0 0.0
2017-Apr-26 04:59N 26°04' W 080°08'0 0.0
2017-Apr-26 04:26N 26°04' W 080°08'0 0.0
2017-Apr-26 03:59N 26°04' W 080°08'0 0.0
2017-Apr-26 03:26N 26°04' W 080°08'0 0.0
2017-Apr-26 02:59N 26°04' W 080°08'0 0.0
2017-Apr-26 02:26N 26°04' W 080°08'0 0.0
2017-Apr-26 01:56N 26°04' W 080°08'0 0.0
2017-Apr-26 01:26N 26°04' W 080°08'0 0.0
2017-Apr-26 00:56N 26°04' W 080°08'0 0.0
2017-Apr-26 00:29N 26°04' W 080°08'0 0.0
2017-Apr-25 23:59N 26°04' W 080°08'0 0.0
2017-Apr-25 23:29N 26°04' W 080°08'0 0.0
2017-Apr-25 22:59N 26°04' W 080°08'0 0.0
2017-Apr-25 22:29N 26°04' W 080°08'0 0.0
2017-Apr-25 21:59N 26°04' W 080°08'0 0.0
2017-Apr-25 21:29N 26°04' W 080°08'0 0.0
2017-Apr-25 20:59N 26°04' W 080°08'0 0.0
2017-Apr-25 20:29N 26°04' W 080°08'0 0.0
2017-Apr-25 19:59N 26°04' W 080°08'0 0.0
2017-Apr-25 19:20N 26°04' W 080°08'0 0.0
2017-Apr-25 18:59N 26°04' W 080°08'0 0.0
2017-Apr-25 18:29N 26°04' W 080°08'0 0.0
2017-Apr-25 17:59N 26°04' W 080°08'0 1.0
2017-Apr-25 17:30N 26°04' W 080°07'2 4.1
2017-Apr-25 17:00N 26°06' W 080°06'4 8.0
2017-Apr-25 16:30N 26°07' W 080°02'2 4.0
2017-Apr-25 16:00N 26°09' W 080°02'1 2.1
2017-Apr-25 15:30N 26°10' W 080°02'510.6
2017-Apr-25 15:00N 26°06' W 080°05'3 6.2
2017-Apr-25 14:30N 26°04' W 080°07'0 0.3
2017-Apr-25 13:23N 26°04' W 080°08'0 0.0
2017-Apr-25 12:53N 26°04' W 080°08'0 0.0
2017-Apr-25 12:23N 26°04' W 080°08'0 0.0
2017-Apr-25 11:53N 26°04' W 080°08'0 0.0
2017-Apr-25 11:23N 26°04' W 080°08'0 0.0
2017-Apr-25 10:53N 26°04' W 080°08'0 0.0
2017-Apr-25 10:23N 26°04' W 080°08'0 0.0
2017-Apr-25 09:56N 26°04' W 080°08'0 0.0
2017-Apr-25 09:26N 26°04' W 080°08'0 0.0
2017-Apr-25 08:56N 26°04' W 080°08'0 0.0
2017-Apr-25 08:26N 26°04' W 080°08'0 0.0
2017-Apr-25 07:56N 26°04' W 080°08'0 0.0
2017-Apr-25 07:29N 26°04' W 080°08'0 0.0
2017-Apr-25 06:59N 26°04' W 080°08'0 0.0
2017-Apr-25 06:29N 26°04' W 080°08'0 0.0
2017-Apr-25 05:59N 26°04' W 080°08'0 0.0
2017-Apr-25 05:29N 26°04' W 080°08'0 0.0
2017-Apr-25 04:56N 26°04' W 080°08'0 0.0
2017-Apr-25 04:26N 26°04' W 080°08'0 0.0
2017-Apr-25 03:59N 26°04' W 080°08'0 0.0
2017-Apr-25 03:29N 26°04' W 080°08'0 0.0
2017-Apr-25 02:59N 26°04' W 080°08'0 0.0
2017-Apr-25 02:29N 26°04' W 080°08'0 0.0
2017-Apr-25 01:59N 26°04' W 080°08'0 0.0
2017-Apr-25 01:29N 26°04' W 080°08'0 0.0
2017-Apr-25 00:59N 26°04' W 080°08'0 0.0
2017-Apr-25 00:20N 26°04' W 080°08'0 0.0
2017-Apr-24 23:50N 26°04' W 080°08'0 0.0
2017-Apr-24 23:23N 26°04' W 080°08'0 0.0
2017-Apr-24 22:53N 26°04' W 080°08'0 0.0
2017-Apr-24 22:23N 26°04' W 080°08'0 0.0
2017-Apr-24 21:53N 26°04' W 080°08'0 0.0
2017-Apr-24 21:23N 26°04' W 080°08'0 0.0
2017-Apr-24 20:53N 26°04' W 080°08'0 0.0
2017-Apr-24 20:26N 26°04' W 080°08'0 0.0
2017-Apr-24 19:53N 26°04' W 080°08'0 0.0
2017-Apr-24 19:26N 26°04' W 080°08'0 0.0
2017-Apr-24 18:56N 26°04' W 080°08'0 0.0
2017-Apr-24 18:26N 26°04' W 080°08'0 0.0
2017-Apr-24 17:56N 26°04' W 080°08'0 0.0
2017-Apr-24 17:29N 26°04' W 080°08'0 0.0
2017-Apr-24 16:59N 26°04' W 080°08'0 0.0
2017-Apr-24 16:29N 26°04' W 080°08'0 0.0
2017-Apr-24 15:59N 26°04' W 080°08'0 0.0
2017-Apr-24 15:29N 26°04' W 080°08'0 0.0
2017-Apr-24 14:59N 26°04' W 080°08'0 0.0
2017-Apr-24 14:29N 26°04' W 080°08'0 0.0
2017-Apr-24 13:29N 26°04' W 080°08'0 0.0
2017-Apr-24 12:59N 26°04' W 080°08'0 0.0
2017-Apr-24 12:29N 26°04' W 080°08'0 0.0
2017-Apr-24 11:59N 26°04' W 080°08'0 0.0
2017-Apr-24 11:29N 26°04' W 080°08'0 0.0
2017-Apr-24 10:59N 26°04' W 080°08'0 0.0
2017-Apr-24 10:20N 26°04' W 080°08'0 0.0
2017-Apr-24 09:50N 26°04' W 080°08'0 0.0
2017-Apr-24 09:23N 26°04' W 080°08'0 0.0
2017-Apr-24 08:53N 26°04' W 080°08'0 0.0
2017-Apr-24 08:23N 26°04' W 080°08'0 0.0
2017-Apr-24 07:50N 26°04' W 080°08'0 0.0
2017-Apr-24 07:23N 26°04' W 080°08'0 0.0
2017-Apr-24 06:53N 26°04' W 080°08'0 0.0
2017-Apr-24 06:26N 26°04' W 080°08'0 0.0
2017-Apr-24 05:56N 26°04' W 080°08'0 0.0
2017-Apr-24 05:26N 26°04' W 080°08'0 0.0
2017-Apr-24 04:56N 26°04' W 080°08'0 0.0
2017-Apr-23 10:17N 26°04' W 080°08'0 0.0
2017-Apr-23 09:59N 26°04' W 080°08'0 0.0
2017-Apr-23 09:29N 26°04' W 080°08'0 0.0
2017-Apr-23 08:59N 26°04' W 080°08'0 0.0
2017-Apr-23 08:29N 26°04' W 080°08'0 0.0
2017-Apr-23 07:59N 26°04' W 080°08'0 0.0
2017-Apr-23 07:29N 26°04' W 080°08'0 0.0
2017-Apr-23 06:50N 26°04' W 080°08'0 0.0
2017-Apr-23 06:20N 26°04' W 080°08'0 0.0
2017-Apr-23 05:50N 26°04' W 080°08'0 0.0
2017-Apr-23 05:23N 26°04' W 080°08'0 0.0
2017-Apr-23 04:53N 26°04' W 080°08'0 0.0
2017-Apr-23 04:23N 26°04' W 080°08'0 0.0
2017-Apr-23 03:53N 26°04' W 080°08'0 0.0
2017-Apr-23 03:23N 26°04' W 080°08'0 0.0
2017-Apr-23 02:53N 26°04' W 080°08'0 0.0
2017-Apr-23 02:26N 26°04' W 080°08'0 0.0
2017-Apr-23 01:56N 26°04' W 080°08'0 0.0
2017-Apr-23 01:26N 26°04' W 080°08'0 0.0
2017-Apr-23 00:56N 26°04' W 080°08'0 0.0
2017-Apr-23 00:26N 26°04' W 080°08'0 0.0
2017-Apr-22 23:59N 26°04' W 080°08'0 0.0
2017-Apr-22 23:26N 26°04' W 080°08'0 0.0
2017-Apr-22 22:56N 26°04' W 080°08'0 0.0
2017-Apr-22 22:29N 26°04' W 080°08'0 0.0
2017-Apr-22 21:59N 26°04' W 080°08'0 0.0
2017-Apr-22 21:29N 26°04' W 080°08'0 0.0
2017-Apr-22 20:59N 26°04' W 080°08'0 0.0
2017-Apr-22 20:29N 26°04' W 080°08'0 0.0
2017-Apr-22 19:59N 26°04' W 080°08'0 0.0
2017-Apr-22 19:29N 26°04' W 080°08'0 0.0
2017-Apr-22 18:59N 26°04' W 080°08'0 0.0
2017-Apr-22 18:29N 26°04' W 080°08'0 0.0
2017-Apr-22 17:59N 26°04' W 080°08'0 0.0
2017-Apr-22 17:20N 26°04' W 080°08'0 0.0
2017-Apr-22 16:50N 26°04' W 080°08'0 0.0
2017-Apr-22 16:20N 26°04' W 080°08'0 0.0
2017-Apr-22 15:53N 26°04' W 080°08'0 0.0
2017-Apr-22 15:23N 26°04' W 080°08'0 0.0
2017-Apr-22 14:50N 26°04' W 080°08'0 0.0
2017-Apr-22 14:20N 26°04' W 080°08'0 0.0
2017-Apr-22 13:23N 26°04' W 080°08'0 0.0
2017-Apr-22 12:56N 26°04' W 080°08'0 0.0
2017-Apr-22 12:26N 26°04' W 080°08'0 0.0
2017-Apr-22 11:56N 26°04' W 080°08'0 0.0
2017-Apr-22 11:26N 26°04' W 080°08'0 0.0
2017-Apr-22 10:56N 26°04' W 080°08'0 0.0
2017-Apr-22 10:29N 26°04' W 080°08'0 0.0
2017-Apr-22 09:59N 26°04' W 080°08'0 0.0
2017-Apr-22 09:29N 26°04' W 080°08'0 0.0
2017-Apr-22 08:59N 26°04' W 080°08'0 0.0
2017-Apr-22 08:29N 26°04' W 080°08'0 0.0
2017-Apr-22 07:59N 26°04' W 080°08'0 0.0
2017-Apr-22 07:29N 26°04' W 080°08'0 0.0
2017-Apr-22 06:59N 26°04' W 080°08'0 0.0
2017-Apr-22 06:29N 26°04' W 080°08'0 0.0
2017-Apr-22 05:59N 26°04' W 080°08'0 0.0
2017-Apr-22 05:29N 26°04' W 080°08'0 0.0
2017-Apr-22 04:59N 26°04' W 080°08'0 0.0
2017-Apr-22 04:29N 26°04' W 080°08'0 0.0
2017-Apr-22 03:59N 26°04' W 080°08'0 0.0
2017-Apr-22 03:20N 26°04' W 080°08'0 0.0
2017-Apr-22 02:50N 26°04' W 080°08'0 0.0
2017-Apr-22 02:20N 26°04' W 080°08'0 0.0
2017-Apr-22 01:53N 26°04' W 080°08'0 0.0
2017-Apr-22 01:23N 26°04' W 080°08'0 0.0
2017-Apr-22 00:53N 26°04' W 080°08'0 0.0
2017-Apr-22 00:23N 26°04' W 080°08'0 0.0
2017-Apr-21 23:53N 26°04' W 080°08'0 0.0
2017-Apr-21 23:23N 26°04' W 080°08'0 0.0
2017-Apr-21 22:56N 26°04' W 080°08'0 0.0
2017-Apr-21 22:26N 26°04' W 080°08'0 0.0
2017-Apr-21 21:56N 26°04' W 080°08'0 0.0
2017-Apr-21 21:23N 26°04' W 080°08'0 0.0
2017-Apr-21 20:56N 26°04' W 080°08'0 0.0
2017-Apr-21 20:29N 26°04' W 080°08'0 0.0
2017-Apr-21 19:59N 26°04' W 080°08'0 0.0
2017-Apr-21 19:29N 26°04' W 080°08'0 0.0
2017-Apr-21 18:59N 26°04' W 080°08'0 0.0
2017-Apr-21 18:29N 26°04' W 080°08'0 0.0
2017-Apr-21 17:59N 26°04' W 080°08'0 0.0
2017-Apr-21 17:29N 26°04' W 080°08'0 0.0
2017-Apr-21 16:59N 26°04' W 080°08'0 0.0
2017-Apr-21 16:26N 26°04' W 080°08'0 0.0
2017-Apr-21 15:59N 26°04' W 080°08'0 0.0
2017-Apr-21 15:29N 26°04' W 080°08'0 0.0
2017-Apr-21 14:59N 26°04' W 080°08'0 0.0
2017-Apr-21 14:29N 26°04' W 080°08'0 0.0
2017-Apr-21 13:20N 26°04' W 080°08'0 0.0
2017-Apr-21 12:50N 26°04' W 080°08'0 0.0
2017-Apr-21 12:20N 26°04' W 080°08'0 0.0
2017-Apr-21 11:53N 26°04' W 080°08'0 0.0
2017-Apr-21 11:23N 26°04' W 080°08'0 0.0
2017-Apr-21 10:53N 26°04' W 080°08'0 0.0
2017-Apr-21 10:23N 26°04' W 080°08'0 0.0
2017-Apr-21 09:53N 26°04' W 080°08'0 0.0
2017-Apr-21 09:23N 26°04' W 080°08'0 0.0
2017-Apr-21 08:56N 26°04' W 080°08'0 0.0
2017-Apr-21 08:26N 26°04' W 080°08'0 0.0
2017-Apr-21 07:56N 26°04' W 080°08'0 0.0
2017-Apr-21 07:26N 26°04' W 080°08'0 0.0
2017-Apr-21 06:56N 26°04' W 080°08'0 0.0
2017-Apr-21 06:29N 26°04' W 080°08'0 0.0
2017-Apr-21 05:59N 26°04' W 080°08'0 0.0
2017-Apr-21 05:29N 26°04' W 080°08'0 0.0
2017-Apr-21 04:59N 26°04' W 080°08'0 0.0
2017-Apr-21 04:29N 26°04' W 080°08'0 0.0
2017-Apr-21 03:59N 26°04' W 080°08'0 0.0
2017-Apr-21 03:29N 26°04' W 080°08'0 0.0
2017-Apr-21 02:59N 26°04' W 080°08'0 0.0
2017-Apr-21 02:29N 26°04' W 080°08'0 0.0
2017-Apr-21 01:59N 26°04' W 080°08'0 0.0
2017-Apr-21 01:29N 26°04' W 080°08'0 0.0
2017-Apr-21 00:59N 26°04' W 080°08'0 0.0
2017-Apr-21 00:29N 26°04' W 080°08'0 0.0
2017-Apr-20 23:59N 26°04' W 080°08'0 0.0
2017-Apr-20 23:20N 26°04' W 080°08'0 0.0
2017-Apr-20 22:50N 26°04' W 080°08'0 0.0
2017-Apr-20 22:20N 26°04' W 080°08'0 0.0
2017-Apr-20 21:50N 26°04' W 080°08'0 0.0
2017-Apr-20 21:23N 26°04' W 080°08'0 0.0
2017-Apr-20 20:53N 26°04' W 080°08'0 0.0
2017-Apr-20 20:23N 26°04' W 080°08'0 0.0
2017-Apr-20 19:53N 26°04' W 080°08'0 0.0
2017-Apr-20 19:23N 26°04' W 080°08'0 0.0
2017-Apr-20 18:53N 26°04' W 080°08'0 0.0
2017-Apr-20 18:26N 26°04' W 080°08'0 0.0
2017-Apr-20 17:56N 26°04' W 080°08'0 0.0
2017-Apr-20 17:26N 26°04' W 080°08'0 0.0
2017-Apr-20 16:56N 26°04' W 080°08'0 0.0
2017-Apr-20 16:26N 26°04' W 080°08'0 0.0
2017-Apr-20 15:59N 26°04' W 080°08'0 0.0
2017-Apr-20 15:29N 26°04' W 080°08'0 0.0
2017-Apr-20 14:59N 26°04' W 080°08'0 0.0
2017-Apr-20 13:59N 26°04' W 080°08'0 0.0
2017-Apr-20 13:29N 26°04' W 080°08'0 0.0
2017-Apr-20 12:59N 26°04' W 080°08'0 0.0
2017-Apr-20 12:29N 26°04' W 080°08'0 0.0
2017-Apr-20 11:59N 26°04' W 080°08'0 0.0
2017-Apr-20 11:29N 26°04' W 080°08'0 0.0
2017-Apr-20 10:59N 26°04' W 080°08'0 0.0
2017-Apr-20 10:29N 26°04' W 080°08'0 0.0
2017-Apr-20 09:59N 26°04' W 080°08'0 0.0
2017-Apr-20 09:29N 26°04' W 080°08'0 0.0
2017-Apr-20 08:59N 26°04' W 080°08'0 0.0
2017-Apr-20 08:29N 26°04' W 080°08'0 0.0
2017-Apr-20 07:56N 26°04' W 080°08'0 0.0
2017-Apr-20 07:29N 26°04' W 080°08'0 0.0
2017-Apr-20 06:59N 26°04' W 080°08'0 0.0
2017-Apr-20 06:29N 26°04' W 080°08'0 0.0
2017-Apr-20 05:59N 26°04' W 080°08'0 0.0
2017-Apr-20 05:29N 26°04' W 080°08'0 0.0
2017-Apr-20 04:59N 26°04' W 080°08'0 0.0
2017-Apr-20 04:29N 26°04' W 080°08'0 0.0
2017-Apr-20 03:59N 26°04' W 080°08'0 0.0
2017-Apr-20 03:29N 26°04' W 080°08'0 0.0
2017-Apr-20 02:59N 26°04' W 080°08'0 0.0
2017-Apr-20 02:29N 26°04' W 080°08'0 0.0
2017-Apr-20 01:59N 26°04' W 080°08'0 0.0
2017-Apr-20 01:29N 26°04' W 080°08'0 0.0
2017-Apr-20 00:59N 26°04' W 080°08'0 0.0
2017-Apr-20 00:29N 26°04' W 080°08'0 0.0
2017-Apr-19 23:59N 26°04' W 080°08'0 0.0
2017-Apr-19 23:29N 26°04' W 080°08'0 0.0
2017-Apr-19 22:59N 26°04' W 080°08'0 0.0
2017-Apr-19 22:29N 26°04' W 080°08'0 0.0
2017-Apr-19 21:59N 26°04' W 080°08'0 0.0
2017-Apr-19 21:29N 26°04' W 080°08'0 0.0
2017-Apr-19 20:59N 26°04' W 080°08'0 0.0
2017-Apr-19 20:29N 26°04' W 080°08'0 0.0
2017-Apr-19 19:59N 26°04' W 080°08'0 0.0
2017-Apr-19 19:29N 26°04' W 080°08'0 0.0
2017-Apr-19 18:59N 26°04' W 080°08'0 0.0
2017-Apr-19 18:29N 26°04' W 080°08'0 0.0
2017-Apr-19 17:59N 26°04' W 080°08'0 0.0
2017-Apr-19 17:29N 26°04' W 080°08'0 0.0
2017-Apr-19 16:59N 26°04' W 080°08'0 0.0
2017-Apr-19 16:29N 26°04' W 080°08'0 0.0
2017-Apr-19 15:59N 26°04' W 080°08'0 0.0
2017-Apr-19 15:29N 26°04' W 080°08'0 0.0
2017-Apr-19 14:59N 26°04' W 080°08'0 0.0
2017-Apr-19 14:29N 26°04' W 080°08'0 0.0
2017-Apr-19 13:29N 26°04' W 080°08'0 0.0
2017-Apr-19 12:59N 26°04' W 080°08'0 0.0
2017-Apr-19 12:29N 26°04' W 080°08'0 0.0
2017-Apr-19 11:59N 26°04' W 080°08'0 0.0
2017-Apr-19 11:29N 26°04' W 080°08'0 0.0
2017-Apr-19 10:59N 26°04' W 080°08'0 0.0
2017-Apr-19 10:29N 26°04' W 080°08'0 0.0
2017-Apr-19 09:59N 26°04' W 080°08'0 0.0
2017-Apr-19 09:29N 26°04' W 080°08'0 0.0
2017-Apr-19 08:59N 26°04' W 080°08'0 0.0
2017-Apr-19 08:29N 26°04' W 080°08'0 0.0
2017-Apr-19 07:59N 26°04' W 080°08'0 0.0
2017-Apr-19 07:29N 26°04' W 080°08'0 0.0
2017-Apr-19 06:59N 26°04' W 080°08'0 0.0
2017-Apr-19 06:29N 26°04' W 080°08'0 0.0
2017-Apr-19 05:59N 26°04' W 080°08'0 0.0
2017-Apr-19 05:29N 26°04' W 080°08'0 0.0
2017-Apr-19 04:59N 26°04' W 080°08'0 0.0
2017-Apr-19 04:29N 26°04' W 080°08'0 0.0
2017-Apr-19 03:59N 26°04' W 080°08'0 0.0
2017-Apr-19 03:29N 26°04' W 080°08'0 0.0
2017-Apr-19 02:59N 26°04' W 080°08'0 0.0
2017-Apr-19 02:29N 26°04' W 080°08'0 0.0
2017-Apr-19 01:59N 26°04' W 080°08'0 0.0
2017-Apr-19 01:29N 26°04' W 080°08'0 0.0
2017-Apr-19 00:59N 26°04' W 080°08'0 0.0
2017-Apr-19 00:29N 26°04' W 080°08'0 0.0
2017-Apr-18 23:59N 26°04' W 080°08'0 0.0
2017-Apr-18 23:29N 26°04' W 080°08'0 0.0
2017-Apr-18 22:59N 26°04' W 080°08'0 0.0
2017-Apr-18 22:29N 26°04' W 080°08'0 0.0
2017-Apr-18 21:59N 26°04' W 080°08'0 0.0
2017-Apr-18 21:29N 26°04' W 080°08'0 0.0
2017-Apr-18 20:59N 26°04' W 080°08'0 0.0
2017-Apr-18 20:29N 26°04' W 080°08'0 0.0
2017-Apr-18 19:59N 26°04' W 080°08'0 0.0
2017-Apr-18 19:29N 26°04' W 080°08'0 0.0
2017-Apr-18 18:59N 26°04' W 080°08'0 0.0
2017-Apr-18 18:29N 26°04' W 080°08'0 0.0
2017-Apr-18 17:59N 26°04' W 080°08'0 0.0
2017-Apr-18 17:29N 26°04' W 080°08'0 0.0
2017-Apr-18 16:59N 26°04' W 080°08'0 0.0
2017-Apr-18 16:29N 26°04' W 080°08'0 0.0
2017-Apr-18 15:59N 26°04' W 080°08'0 0.0
2017-Apr-18 15:29N 26°04' W 080°08'0 0.0
2017-Apr-18 14:59N 26°04' W 080°08'0 0.0
2017-Apr-18 14:29N 26°04' W 080°08'0 0.0
2017-Apr-18 13:29N 26°04' W 080°08'0 0.0
2017-Apr-18 12:59N 26°04' W 080°08'0 0.0
2017-Apr-18 12:29N 26°04' W 080°08'0 0.0
2017-Apr-18 11:59N 26°04' W 080°08'0 0.0
2017-Apr-18 11:29N 26°04' W 080°08'0 0.0
2017-Apr-18 10:59N 26°04' W 080°08'0 0.0
2017-Apr-18 10:29N 26°04' W 080°08'0 0.0
2017-Apr-18 09:59N 26°04' W 080°08'0 0.0
2017-Apr-18 09:29N 26°04' W 080°08'0 0.0
2017-Apr-18 08:59N 26°04' W 080°08'0 0.0
2017-Apr-18 08:29N 26°04' W 080°08'0 0.0
2017-Apr-18 07:59N 26°04' W 080°08'0 0.0
2017-Apr-18 07:29N 26°04' W 080°08'0 0.0
2017-Apr-18 06:59N 26°04' W 080°08'0 0.0
2017-Apr-18 06:29N 26°04' W 080°08'0 0.0
2017-Apr-18 05:59N 26°04' W 080°08'0 0.0
2017-Apr-18 05:29N 26°04' W 080°08'0 0.0
2017-Apr-18 04:59N 26°04' W 080°08'0 0.0
2017-Apr-18 04:29N 26°04' W 080°08'0 0.0
2017-Apr-18 03:59N 26°04' W 080°08'0 0.0
2017-Apr-18 03:29N 26°04' W 080°08'0 0.0
2017-Apr-18 02:59N 26°04' W 080°08'0 0.0
2017-Apr-18 02:29N 26°04' W 080°08'0 0.0
2017-Apr-18 01:59N 26°04' W 080°08'0 0.0
2017-Apr-18 01:29N 26°04' W 080°08'0 0.0
2017-Apr-18 00:59N 26°04' W 080°08'0 0.0
2017-Apr-18 00:29N 26°04' W 080°08'0 0.0
2017-Apr-17 23:59N 26°04' W 080°08'0 0.0
2017-Apr-17 23:29N 26°04' W 080°08'0 0.0
2017-Apr-17 22:59N 26°04' W 080°08'0 0.0
2017-Apr-17 22:29N 26°04' W 080°08'0 0.0
2017-Apr-17 21:59N 26°04' W 080°08'0 0.0
2017-Apr-17 21:29N 26°04' W 080°08'0 0.0
2017-Apr-17 20:59N 26°04' W 080°08'0 0.0
2017-Apr-17 20:29N 26°04' W 080°08'0 0.0
2017-Apr-17 19:59N 26°04' W 080°08'0 0.0
2017-Apr-17 19:26N 26°04' W 080°08'0 0.0
2017-Apr-17 18:56N 26°04' W 080°08'0 0.0
2017-Apr-17 18:29N 26°04' W 080°08'0 0.0
2017-Apr-17 17:59N 26°04' W 080°08'0 0.0
2017-Apr-17 17:29N 26°04' W 080°08'0 0.0
2017-Apr-17 16:59N 26°04' W 080°08'0 0.0
2017-Apr-17 16:29N 26°04' W 080°08'0 0.0
2017-Apr-17 15:59N 26°04' W 080°08'0 0.0
2017-Apr-17 15:29N 26°04' W 080°08'0 0.0
2017-Apr-17 14:59N 26°04' W 080°08'0 0.0
2017-Apr-17 14:29N 26°04' W 080°08'0 0.0
2017-Apr-17 13:29N 26°04' W 080°08'0 0.0
2017-Apr-17 12:59N 26°04' W 080°08'0 0.0
2017-Apr-17 12:29N 26°04' W 080°08'0 0.0
2017-Apr-17 11:59N 26°04' W 080°08'0 0.0
2017-Apr-17 11:29N 26°04' W 080°08'0 0.0
2017-Apr-17 10:59N 26°04' W 080°08'0 0.0
2017-Apr-17 10:29N 26°04' W 080°08'0 0.0
2017-Apr-17 09:59N 26°04' W 080°08'0 0.0
2017-Apr-17 09:29N 26°04' W 080°08'0 0.0
2017-Apr-17 08:59N 26°04' W 080°08'0 0.0
2017-Apr-17 08:29N 26°04' W 080°08'0 0.0
2017-Apr-17 07:56N 26°04' W 080°08'0 0.0
2017-Apr-17 07:29N 26°04' W 080°08'0 0.0
2017-Apr-17 06:56N 26°04' W 080°08'0 0.0
2017-Apr-17 06:29N 26°04' W 080°08'0 0.0
2017-Apr-17 05:59N 26°04' W 080°08'0 0.0
2017-Apr-17 05:29N 26°04' W 080°08'0 0.0
2017-Apr-17 04:59N 26°04' W 080°08'0 0.0
2017-Apr-17 04:29N 26°04' W 080°08'0 0.0
2017-Apr-17 03:59N 26°04' W 080°08'0 0.0
2017-Apr-17 03:29N 26°04' W 080°08'0 0.0
2017-Apr-17 02:59N 26°04' W 080°08'0 0.0
2017-Apr-17 02:29N 26°04' W 080°08'0 0.0
2017-Apr-17 01:59N 26°04' W 080°08'0 0.0
2017-Apr-17 01:29N 26°04' W 080°08'0 0.0
2017-Apr-17 00:59N 26°04' W 080°08'0 0.0
2017-Apr-17 00:29N 26°04' W 080°08'0 0.0
2017-Apr-16 23:59N 26°04' W 080°08'0 0.0
2017-Apr-16 23:29N 26°04' W 080°08'0 0.0
2017-Apr-16 22:59N 26°04' W 080°08'0 0.0
2017-Apr-16 22:29N 26°04' W 080°08'0 0.0
2017-Apr-16 21:59N 26°04' W 080°08'0 0.0
2017-Apr-16 21:26N 26°04' W 080°08'0 0.0
2017-Apr-16 20:59N 26°04' W 080°08'0 0.0
2017-Apr-16 20:29N 26°04' W 080°08'0 0.0
2017-Apr-16 19:59N 26°04' W 080°08'0 0.0
2017-Apr-16 19:29N 26°04' W 080°08'0 0.0
2017-Apr-16 18:59N 26°04' W 080°08'0 0.0
2017-Apr-16 18:29N 26°04' W 080°08'0 0.0
2017-Apr-16 17:56N 26°04' W 080°08'0 0.0
2017-Apr-16 17:29N 26°04' W 080°08'0 0.0
2017-Apr-16 16:59N 26°04' W 080°08'0 0.0
2017-Apr-16 16:29N 26°04' W 080°08'0 0.0
2017-Apr-16 15:59N 26°04' W 080°08'0 0.0
2017-Apr-16 15:29N 26°04' W 080°08'0 0.0
2017-Apr-16 14:59N 26°04' W 080°08'0 0.0
2017-Apr-16 14:29N 26°04' W 080°08'0 0.0
2017-Apr-16 13:29N 26°04' W 080°08'0 0.0
2017-Apr-16 12:59N 26°04' W 080°08'0 0.0
2017-Apr-16 12:29N 26°04' W 080°08'0 0.0
2017-Apr-16 11:59N 26°04' W 080°08'0 0.0
2017-Apr-16 11:29N 26°04' W 080°08'0 0.0
2017-Apr-16 10:59N 26°04' W 080°08'0 0.0
2017-Apr-16 10:29N 26°04' W 080°08'0 0.0
2017-Apr-16 09:59N 26°04' W 080°08'  
Track history (hours):
 
Tides and Currents Weather Stations Pressure Air Temp Water Temp Dewpoint Dewpoint Depression Visibility Wind Speed Wind Dir Waves Ship Positions

M Y Odessa

Last reported at 2017-Apr-26 09:29 UTC. Time now 2017-Apr-26 09:54 UTC.
Position N 26°04' W 080°08'.

Length 48 m; draft 2.4 m.

Type: Pleasure craft. MMSI: 319010700.

Date/timePositionNaut miles runAvg speedWind from/ knotsBaromVisibWave heightAir tempDewpointWater temp
2017-Apr-26 09:29N 26°04' W 080°08'0 0.0
2017-Apr-26 08:59N 26°04' W 080°08'0 0.0
2017-Apr-26 08:29N 26°04' W 080°08'0 0.0
2017-Apr-26 07:59N 26°04' W 080°08'0 0.0
2017-Apr-26 07:20N 26°04' W 080°08'0 0.0
2017-Apr-26 06:50N 26°04' W 080°08'0 0.0
2017-Apr-26 06:26N 26°04' W 080°08'0 0.0
2017-Apr-26 05:56N 26°04' W 080°08'0 0.0
2017-Apr-26 05:29N 26°04' W 080°08'0 0.0
2017-Apr-26 04:59N 26°04' W 080°08'0 0.0
2017-Apr-26 04:26N 26°04' W 080°08'0 0.0
2017-Apr-26 03:59N 26°04' W 080°08'0 0.0
2017-Apr-26 03:26N 26°04' W 080°08'0 0.0
2017-Apr-26 02:59N 26°04' W 080°08'0 0.0
2017-Apr-26 02:26N 26°04' W 080°08'0 0.0
2017-Apr-26 01:56N 26°04' W 080°08'0 0.0
2017-Apr-26 01:26N 26°04' W 080°08'0 0.0
2017-Apr-26 00:56N 26°04' W 080°08'0 0.0
2017-Apr-26 00:29N 26°04' W 080°08'0 0.0
2017-Apr-25 23:59N 26°04' W 080°08'0 0.0
2017-Apr-25 23:29N 26°04' W 080°08'0 0.0
2017-Apr-25 22:59N 26°04' W 080°08'0 0.0
2017-Apr-25 22:29N 26°04' W 080°08'0 0.0
2017-Apr-25 21:59N 26°04' W 080°08'0 0.0
2017-Apr-25 21:29N 26°04' W 080°08'0 0.0
2017-Apr-25 20:59N 26°04' W 080°08'0 0.0
2017-Apr-25 20:29N 26°04' W 080°08'0 0.0
2017-Apr-25 19:59N 26°04' W 080°08'0 0.0
2017-Apr-25 19:20N 26°04' W 080°08'0 0.0
2017-Apr-25 18:59N 26°04' W 080°08'0 0.0
2017-Apr-25 18:29N 26°04' W 080°08'0 0.0
2017-Apr-25 17:59N 26°04' W 080°08'0 1.0
2017-Apr-25 17:30N 26°04' W 080°07'2 4.1
2017-Apr-25 17:00N 26°06' W 080°06'4 8.0
2017-Apr-25 16:30N 26°07' W 080°02'2 4.0
2017-Apr-25 16:00N 26°09' W 080°02'1 2.1
2017-Apr-25 15:30N 26°10' W 080°02'510.6
2017-Apr-25 15:00N 26°06' W 080°05'3 6.2
2017-Apr-25 14:30N 26°04' W 080°07'0 0.3
2017-Apr-25 13:23N 26°04' W 080°08'0 0.0
2017-Apr-25 12:53N 26°04' W 080°08'0 0.0
2017-Apr-25 12:23N 26°04' W 080°08'0 0.0
2017-Apr-25 11:53N 26°04' W 080°08'0 0.0
2017-Apr-25 11:23N 26°04' W 080°08'0 0.0
2017-Apr-25 10:53N 26°04' W 080°08'0 0.0
2017-Apr-25 10:23N 26°04' W 080°08'0 0.0
2017-Apr-25 09:56N 26°04' W 080°08'0 0.0
2017-Apr-25 09:26N 26°04' W 080°08'0 0.0
2017-Apr-25 08:56N 26°04' W 080°08'0 0.0
2017-Apr-25 08:26N 26°04' W 080°08'0 0.0
2017-Apr-25 07:56N 26°04' W 080°08'0 0.0
2017-Apr-25 07:29N 26°04' W 080°08'0 0.0
2017-Apr-25 06:59N 26°04' W 080°08'0 0.0
2017-Apr-25 06:29N 26°04' W 080°08'0 0.0
2017-Apr-25 05:59N 26°04' W 080°08'0 0.0
2017-Apr-25 05:29N 26°04' W 080°08'0 0.0
2017-Apr-25 04:56N 26°04' W 080°08'0 0.0
2017-Apr-25 04:26N 26°04' W 080°08'0 0.0
2017-Apr-25 03:59N 26°04' W 080°08'0 0.0
2017-Apr-25 03:29N 26°04' W 080°08'0 0.0
2017-Apr-25 02:59N 26°04' W 080°08'0 0.0
2017-Apr-25 02:29N 26°04' W 080°08'0 0.0
2017-Apr-25 01:59N 26°04' W 080°08'0 0.0
2017-Apr-25 01:29N 26°04' W 080°08'0 0.0
2017-Apr-25 00:59N 26°04' W 080°08'0 0.0
2017-Apr-25 00:20N 26°04' W 080°08'0 0.0
2017-Apr-24 23:50N 26°04' W 080°08'0 0.0
2017-Apr-24 23:23N 26°04' W 080°08'0 0.0
2017-Apr-24 22:53N 26°04' W 080°08'0 0.0
2017-Apr-24 22:23N 26°04' W 080°08'0 0.0
2017-Apr-24 21:53N 26°04' W 080°08'0 0.0
2017-Apr-24 21:23N 26°04' W 080°08'0 0.0
2017-Apr-24 20:53N 26°04' W 080°08'0 0.0
2017-Apr-24 20:26N 26°04' W 080°08'0 0.0
2017-Apr-24 19:53N 26°04' W 080°08'0 0.0
2017-Apr-24 19:26N 26°04' W 080°08'0 0.0
2017-Apr-24 18:56N 26°04' W 080°08'0 0.0
2017-Apr-24 18:26N 26°04' W 080°08'0 0.0
2017-Apr-24 17:56N 26°04' W 080°08'0 0.0
2017-Apr-24 17:29N 26°04' W 080°08'0 0.0
2017-Apr-24 16:59N 26°04' W 080°08'0 0.0
2017-Apr-24 16:29N 26°04' W 080°08'0 0.0
2017-Apr-24 15:59N 26°04' W 080°08'0 0.0
2017-Apr-24 15:29N 26°04' W 080°08'0 0.0
2017-Apr-24 14:59N 26°04' W 080°08'0 0.0
2017-Apr-24 14:29N 26°04' W 080°08'0 0.0
2017-Apr-24 13:29N 26°04' W 080°08'0 0.0
2017-Apr-24 12:59N 26°04' W 080°08'0 0.0
2017-Apr-24 12:29N 26°04' W 080°08'0 0.0
2017-Apr-24 11:59N 26°04' W 080°08'0 0.0
2017-Apr-24 11:29N 26°04' W 080°08'0 0.0
2017-Apr-24 10:59N 26°04' W 080°08'0 0.0
2017-Apr-24 10:20N 26°04' W 080°08'0 0.0
2017-Apr-24 09:50N 26°04' W 080°08'0 0.0
2017-Apr-24 09:23N 26°04' W 080°08'0 0.0
2017-Apr-24 08:53N 26°04' W 080°08'0 0.0
2017-Apr-24 08:23N 26°04' W 080°08'0 0.0
2017-Apr-24 07:50N 26°04' W 080°08'0 0.0
2017-Apr-24 07:23N 26°04' W 080°08'0 0.0
2017-Apr-24 06:53N 26°04' W 080°08'0 0.0
2017-Apr-24 06:26N 26°04' W 080°08'0 0.0
2017-Apr-24 05:56N 26°04' W 080°08'0 0.0
2017-Apr-24 05:26N 26°04' W 080°08'0 0.0
2017-Apr-24 04:56N 26°04' W 080°08'0 0.0
2017-Apr-23 10:17N 26°04' W 080°08'0 0.0
2017-Apr-23 09:59N 26°04' W 080°08'0 0.0
2017-Apr-23 09:29N 26°04' W 080°08'0 0.0
2017-Apr-23 08:59N 26°04' W 080°08'0 0.0
2017-Apr-23 08:29N 26°04' W 080°08'0 0.0
2017-Apr-23 07:59N 26°04' W 080°08'0 0.0
2017-Apr-23 07:29N 26°04' W 080°08'0 0.0
2017-Apr-23 06:50N 26°04' W 080°08'0 0.0
2017-Apr-23 06:20N 26°04' W 080°08'0 0.0
2017-Apr-23 05:50N 26°04' W 080°08'0 0.0
2017-Apr-23 05:23N 26°04' W 080°08'0 0.0
2017-Apr-23 04:53N 26°04' W 080°08'0 0.0
2017-Apr-23 04:23N 26°04' W 080°08'0 0.0
2017-Apr-23 03:53N 26°04' W 080°08'0 0.0
2017-Apr-23 03:23N 26°04' W 080°08'0 0.0
2017-Apr-23 02:53N 26°04' W 080°08'0 0.0
2017-Apr-23 02:26N 26°04' W 080°08'0 0.0
2017-Apr-23 01:56N 26°04' W 080°08'0 0.0
2017-Apr-23 01:26N 26°04' W 080°08'0 0.0
2017-Apr-23 00:56N 26°04' W 080°08'0 0.0
2017-Apr-23 00:26N 26°04' W 080°08'0 0.0
2017-Apr-22 23:59N 26°04' W 080°08'0 0.0
2017-Apr-22 23:26N 26°04' W 080°08'0 0.0
2017-Apr-22 22:56N 26°04' W 080°08'0 0.0
2017-Apr-22 22:29N 26°04' W 080°08'0 0.0
2017-Apr-22 21:59N 26°04' W 080°08'0 0.0
2017-Apr-22 21:29N 26°04' W 080°08'0 0.0
2017-Apr-22 20:59N 26°04' W 080°08'0 0.0
2017-Apr-22 20:29N 26°04' W 080°08'0 0.0
2017-Apr-22 19:59N 26°04' W 080°08'0 0.0
2017-Apr-22 19:29N 26°04' W 080°08'0 0.0
2017-Apr-22 18:59N 26°04' W 080°08'0 0.0
2017-Apr-22 18:29N 26°04' W 080°08'0 0.0
2017-Apr-22 17:59N 26°04' W 080°08'0 0.0
2017-Apr-22 17:20N 26°04' W 080°08'0 0.0
2017-Apr-22 16:50N 26°04' W 080°08'0 0.0
2017-Apr-22 16:20N 26°04' W 080°08'0 0.0
2017-Apr-22 15:53N 26°04' W 080°08'0 0.0
2017-Apr-22 15:23N 26°04' W 080°08'0 0.0
2017-Apr-22 14:50N 26°04' W 080°08'0 0.0
2017-Apr-22 14:20N 26°04' W 080°08'0 0.0
2017-Apr-22 13:23N 26°04' W 080°08'0 0.0
2017-Apr-22 12:56N 26°04' W 080°08'0 0.0
2017-Apr-22 12:26N 26°04' W 080°08'0 0.0
2017-Apr-22 11:56N 26°04' W 080°08'0 0.0
2017-Apr-22 11:26N 26°04' W 080°08'0 0.0
2017-Apr-22 10:56N 26°04' W 080°08'0 0.0
2017-Apr-22 10:29N 26°04' W 080°08'0 0.0
2017-Apr-22 09:59N 26°04' W 080°08'0 0.0
2017-Apr-22 09:29N 26°04' W 080°08'0 0.0
2017-Apr-22 08:59N 26°04' W 080°08'0 0.0
2017-Apr-22 08:29N 26°04' W 080°08'0 0.0
2017-Apr-22 07:59N 26°04' W 080°08'0 0.0
2017-Apr-22 07:29N 26°04' W 080°08'0 0.0
2017-Apr-22 06:59N 26°04' W 080°08'0 0.0
2017-Apr-22 06:29N 26°04' W 080°08'0 0.0
2017-Apr-22 05:59N 26°04' W 080°08'0 0.0
2017-Apr-22 05:29N 26°04' W 080°08'0 0.0
2017-Apr-22 04:59N 26°04' W 080°08'0 0.0
2017-Apr-22 04:29N 26°04' W 080°08'0 0.0
2017-Apr-22 03:59N 26°04' W 080°08'0 0.0
2017-Apr-22 03:20N 26°04' W 080°08'0 0.0
2017-Apr-22 02:50N 26°04' W 080°08'0 0.0
2017-Apr-22 02:20N 26°04' W 080°08'0 0.0
2017-Apr-22 01:53N 26°04' W 080°08'0 0.0
2017-Apr-22 01:23N 26°04' W 080°08'0 0.0
2017-Apr-22 00:53N 26°04' W 080°08'0 0.0
2017-Apr-22 00:23N 26°04' W 080°08'0 0.0
2017-Apr-21 23:53N 26°04' W 080°08'0 0.0
2017-Apr-21 23:23N 26°04' W 080°08'0 0.0
2017-Apr-21 22:56N 26°04' W 080°08'0 0.0
2017-Apr-21 22:26N 26°04' W 080°08'0 0.0
2017-Apr-21 21:56N 26°04' W 080°08'0 0.0
2017-Apr-21 21:23N 26°04' W 080°08'0 0.0
2017-Apr-21 20:56N 26°04' W 080°08'0 0.0
2017-Apr-21 20:29N 26°04' W 080°08'0 0.0
2017-Apr-21 19:59N 26°04' W 080°08'0 0.0
2017-Apr-21 19:29N 26°04' W 080°08'0 0.0
2017-Apr-21 18:59N 26°04' W 080°08'0 0.0
2017-Apr-21 18:29N 26°04' W 080°08'0 0.0
2017-Apr-21 17:59N 26°04' W 080°08'0 0.0
2017-Apr-21 17:29N 26°04' W 080°08'0 0.0
2017-Apr-21 16:59N 26°04' W 080°08'0 0.0
2017-Apr-21 16:26N 26°04' W 080°08'0 0.0
2017-Apr-21 15:59N 26°04' W 080°08'0 0.0
2017-Apr-21 15:29N 26°04' W 080°08'0 0.0
2017-Apr-21 14:59N 26°04' W 080°08'0 0.0
2017-Apr-21 14:29N 26°04' W 080°08'0 0.0
2017-Apr-21 13:20N 26°04' W 080°08'0 0.0
2017-Apr-21 12:50N 26°04' W 080°08'0 0.0
2017-Apr-21 12:20N 26°04' W 080°08'0 0.0
2017-Apr-21 11:53N 26°04' W 080°08'0 0.0
2017-Apr-21 11:23N 26°04' W 080°08'0 0.0
2017-Apr-21 10:53N 26°04' W 080°08'0 0.0
2017-Apr-21 10:23N 26°04' W 080°08'0 0.0
2017-Apr-21 09:53N 26°04' W 080°08'0 0.0
2017-Apr-21 09:23N 26°04' W 080°08'0 0.0
2017-Apr-21 08:56N 26°04' W 080°08'0 0.0
2017-Apr-21 08:26N 26°04' W 080°08'0 0.0
2017-Apr-21 07:56N 26°04' W 080°08'0 0.0
2017-Apr-21 07:26N 26°04' W 080°08'0 0.0
2017-Apr-21 06:56N 26°04' W 080°08'0 0.0
2017-Apr-21 06:29N 26°04' W 080°08'0 0.0
2017-Apr-21 05:59N 26°04' W 080°08'0 0.0
2017-Apr-21 05:29N 26°04' W 080°08'0 0.0
2017-Apr-21 04:59N 26°04' W 080°08'0 0.0
2017-Apr-21 04:29N 26°04' W 080°08'0 0.0
2017-Apr-21 03:59N 26°04' W 080°08'0 0.0
2017-Apr-21 03:29N 26°04' W 080°08'0 0.0
2017-Apr-21 02:59N 26°04' W 080°08'0 0.0
2017-Apr-21 02:29N 26°04' W 080°08'0 0.0
2017-Apr-21 01:59N 26°04' W 080°08'0 0.0
2017-Apr-21 01:29N 26°04' W 080°08'0 0.0
2017-Apr-21 00:59N 26°04' W 080°08'0 0.0
2017-Apr-21 00:29N 26°04' W 080°08'0 0.0
2017-Apr-20 23:59N 26°04' W 080°08'0 0.0
2017-Apr-20 23:20N 26°04' W 080°08'0 0.0
2017-Apr-20 22:50N 26°04' W 080°08'0 0.0
2017-Apr-20 22:20N 26°04' W 080°08'0 0.0
2017-Apr-20 21:50N 26°04' W 080°08'0 0.0
2017-Apr-20 21:23N 26°04' W 080°08'0 0.0
2017-Apr-20 20:53N 26°04' W 080°08'0 0.0
2017-Apr-20 20:23N 26°04' W 080°08'0 0.0
2017-Apr-20 19:53N 26°04' W 080°08'0 0.0
2017-Apr-20 19:23N 26°04' W 080°08'0 0.0
2017-Apr-20 18:53N 26°04' W 080°08'0 0.0
2017-Apr-20 18:26N 26°04' W 080°08'0 0.0
2017-Apr-20 17:56N 26°04' W 080°08'0 0.0
2017-Apr-20 17:26N 26°04' W 080°08'0 0.0
2017-Apr-20 16:56N 26°04' W 080°08'0 0.0
2017-Apr-20 16:26N 26°04' W 080°08'0 0.0
2017-Apr-20 15:59N 26°04' W 080°08'0 0.0
2017-Apr-20 15:29N 26°04' W 080°08'0 0.0
2017-Apr-20 14:59N 26°04' W 080°08'0 0.0
2017-Apr-20 13:59N 26°04' W 080°08'0 0.0
2017-Apr-20 13:29N 26°04' W 080°08'0 0.0
2017-Apr-20 12:59N 26°04' W 080°08'0 0.0
2017-Apr-20 12:29N 26°04' W 080°08'0 0.0
2017-Apr-20 11:59N 26°04' W 080°08'0 0.0
2017-Apr-20 11:29N 26°04' W 080°08'0 0.0
2017-Apr-20 10:59N 26°04' W 080°08'0 0.0
2017-Apr-20 10:29N 26°04' W 080°08'0 0.0
2017-Apr-20 09:59N 26°04' W 080°08'0 0.0
2017-Apr-20 09:29N 26°04' W 080°08'0 0.0
2017-Apr-20 08:59N 26°04' W 080°08'0 0.0
2017-Apr-20 08:29N 26°04' W 080°08'0 0.0
2017-Apr-20 07:56N 26°04' W 080°08'0 0.0
2017-Apr-20 07:29N 26°04' W 080°08'0 0.0
2017-Apr-20 06:59N 26°04' W 080°08'0 0.0
2017-Apr-20 06:29N 26°04' W 080°08'0 0.0
2017-Apr-20 05:59N 26°04' W 080°08'0 0.0
2017-Apr-20 05:29N 26°04' W 080°08'0 0.0
2017-Apr-20 04:59N 26°04' W 080°08'0 0.0
2017-Apr-20 04:29N 26°04' W 080°08'0 0.0
2017-Apr-20 03:59N 26°04' W 080°08'0 0.0
2017-Apr-20 03:29N 26°04' W 080°08'0 0.0
2017-Apr-20 02:59N 26°04' W 080°08'0 0.0
2017-Apr-20 02:29N 26°04' W 080°08'0 0.0
2017-Apr-20 01:59N 26°04' W 080°08'0 0.0
2017-Apr-20 01:29N 26°04' W 080°08'0 0.0
2017-Apr-20 00:59N 26°04' W 080°08'0 0.0
2017-Apr-20 00:29N 26°04' W 080°08'0 0.0
2017-Apr-19 23:59N 26°04' W 080°08'0 0.0
2017-Apr-19 23:29N 26°04' W 080°08'0 0.0
2017-Apr-19 22:59N 26°04' W 080°08'0 0.0
2017-Apr-19 22:29N 26°04' W 080°08'0 0.0
2017-Apr-19 21:59N 26°04' W 080°08'0 0.0
2017-Apr-19 21:29N 26°04' W 080°08'0 0.0
2017-Apr-19 20:59N 26°04' W 080°08'0 0.0
2017-Apr-19 20:29N 26°04' W 080°08'0 0.0
2017-Apr-19 19:59N 26°04' W 080°08'0 0.0
2017-Apr-19 19:29N 26°04' W 080°08'0 0.0
2017-Apr-19 18:59N 26°04' W 080°08'0 0.0
2017-Apr-19 18:29N 26°04' W 080°08'0 0.0
2017-Apr-19 17:59N 26°04' W 080°08'0 0.0
2017-Apr-19 17:29N 26°04' W 080°08'0 0.0
2017-Apr-19 16:59N 26°04' W 080°08'0 0.0
2017-Apr-19 16:29N 26°04' W 080°08'0 0.0
2017-Apr-19 15:59N 26°04' W 080°08'0 0.0
2017-Apr-19 15:29N 26°04' W 080°08'0 0.0
2017-Apr-19 14:59N 26°04' W 080°08'0 0.0
2017-Apr-19 14:29N 26°04' W 080°08'0 0.0
2017-Apr-19 13:29N 26°04' W 080°08'0 0.0
2017-Apr-19 12:59N 26°04' W 080°08'0 0.0
2017-Apr-19 12:29N 26°04' W 080°08'0 0.0
2017-Apr-19 11:59N 26°04' W 080°08'0 0.0
2017-Apr-19 11:29N 26°04' W 080°08'0 0.0
2017-Apr-19 10:59N 26°04' W 080°08'0 0.0
2017-Apr-19 10:29N 26°04' W 080°08'0 0.0
2017-Apr-19 09:59N 26°04' W 080°08'0 0.0
2017-Apr-19 09:29N 26°04' W 080°08'0 0.0
2017-Apr-19 08:59N 26°04' W 080°08'0 0.0
2017-Apr-19 08:29N 26°04' W 080°08'0 0.0
2017-Apr-19 07:59N 26°04' W 080°08'0 0.0
2017-Apr-19 07:29N 26°04' W 080°08'0 0.0
2017-Apr-19 06:59N 26°04' W 080°08'0 0.0
2017-Apr-19 06:29N 26°04' W 080°08'0 0.0
2017-Apr-19 05:59N 26°04' W 080°08'0 0.0
2017-Apr-19 05:29N 26°04' W 080°08'0 0.0
2017-Apr-19 04:59N 26°04' W 080°08'0 0.0
2017-Apr-19 04:29N 26°04' W 080°08'0 0.0
2017-Apr-19 03:59N 26°04' W 080°08'0 0.0
2017-Apr-19 03:29N 26°04' W 080°08'0 0.0
2017-Apr-19 02:59N 26°04' W 080°08'0 0.0
2017-Apr-19 02:29N 26°04' W 080°08'0 0.0
2017-Apr-19 01:59N 26°04' W 080°08'0 0.0
2017-Apr-19 01:29N 26°04' W 080°08'0 0.0
2017-Apr-19 00:59N 26°04' W 080°08'0 0.0
2017-Apr-19 00:29N 26°04' W 080°08'0 0.0
2017-Apr-18 23:59N 26°04' W 080°08'0 0.0
2017-Apr-18 23:29N 26°04' W 080°08'0 0.0
2017-Apr-18 22:59N 26°04' W 080°08'0 0.0
2017-Apr-18 22:29N 26°04' W 080°08'0 0.0
2017-Apr-18 21:59N 26°04' W 080°08'0 0.0
2017-Apr-18 21:29N 26°04' W 080°08'0 0.0
2017-Apr-18 20:59N 26°04' W 080°08'0 0.0
2017-Apr-18 20:29N 26°04' W 080°08'0 0.0
2017-Apr-18 19:59N 26°04' W 080°08'0 0.0
2017-Apr-18 19:29N 26°04' W 080°08'0 0.0
2017-Apr-18 18:59N 26°04' W 080°08'0 0.0
2017-Apr-18 18:29N 26°04' W 080°08'0 0.0
2017-Apr-18 17:59N 26°04' W 080°08'0 0.0
2017-Apr-18 17:29N 26°04' W 080°08'0 0.0
2017-Apr-18 16:59N 26°04' W 080°08'0 0.0
2017-Apr-18 16:29N 26°04' W 080°08'0 0.0
2017-Apr-18 15:59N 26°04' W 080°08'0 0.0
2017-Apr-18 15:29N 26°04' W 080°08'0 0.0
2017-Apr-18 14:59N 26°04' W 080°08'0 0.0
2017-Apr-18 14:29N 26°04' W 080°08'0 0.0
2017-Apr-18 13:29N 26°04' W 080°08'0 0.0
2017-Apr-18 12:59N 26°04' W 080°08'0 0.0
2017-Apr-18 12:29N 26°04' W 080°08'0 0.0
2017-Apr-18 11:59N 26°04' W 080°08'0 0.0
2017-Apr-18 11:29N 26°04' W 080°08'0 0.0
2017-Apr-18 10:59N 26°04' W 080°08'0 0.0
2017-Apr-18 10:29N 26°04' W 080°08'0 0.0
2017-Apr-18 09:59N 26°04' W 080°08'0 0.0
2017-Apr-18 09:29N 26°04' W 080°08'0 0.0
2017-Apr-18 08:59N 26°04' W 080°08'0 0.0
2017-Apr-18 08:29N 26°04' W 080°08'0 0.0
2017-Apr-18 07:59N 26°04' W 080°08'0 0.0
2017-Apr-18 07:29N 26°04' W 080°08'0 0.0
2017-Apr-18 06:59N 26°04' W 080°08'0 0.0
2017-Apr-18 06:29N 26°04' W 080°08'0 0.0
2017-Apr-18 05:59N 26°04' W 080°08'0 0.0
2017-Apr-18 05:29N 26°04' W 080°08'0 0.0
2017-Apr-18 04:59N 26°04' W 080°08'0 0.0
2017-Apr-18 04:29N 26°04' W 080°08'0 0.0
2017-Apr-18 03:59N 26°04' W 080°08'0 0.0
2017-Apr-18 03:29N 26°04' W 080°08'0 0.0
2017-Apr-18 02:59N 26°04' W 080°08'0 0.0
2017-Apr-18 02:29N 26°04' W 080°08'0 0.0
2017-Apr-18 01:59N 26°04' W 080°08'0 0.0
2017-Apr-18 01:29N 26°04' W 080°08'0 0.0
2017-Apr-18 00:59N 26°04' W 080°08'0 0.0
2017-Apr-18 00:29N 26°04' W 080°08'0 0.0
2017-Apr-17 23:59N 26°04' W 080°08'0 0.0
2017-Apr-17 23:29N 26°04' W 080°08'0 0.0
2017-Apr-17 22:59N 26°04' W 080°08'0 0.0
2017-Apr-17 22:29N 26°04' W 080°08'0 0.0
2017-Apr-17 21:59N 26°04' W 080°08'0 0.0
2017-Apr-17 21:29N 26°04' W 080°08'0 0.0
2017-Apr-17 20:59N 26°04' W 080°08'0 0.0
2017-Apr-17 20:29N 26°04' W 080°08'0 0.0
2017-Apr-17 19:59N 26°04' W 080°08'0 0.0
2017-Apr-17 19:26N 26°04' W 080°08'0 0.0
2017-Apr-17 18:56N 26°04' W 080°08'0 0.0
2017-Apr-17 18:29N 26°04' W 080°08'0 0.0
2017-Apr-17 17:59N 26°04' W 080°08'0 0.0
2017-Apr-17 17:29N 26°04' W 080°08'0 0.0
2017-Apr-17 16:59N 26°04' W 080°08'0 0.0
2017-Apr-17 16:29N 26°04' W 080°08'0 0.0
2017-Apr-17 15:59N 26°04' W 080°08'0 0.0
2017-Apr-17 15:29N 26°04' W 080°08'0 0.0
2017-Apr-17 14:59N 26°04' W 080°08'0 0.0
2017-Apr-17 14:29N 26°04' W 080°08'0 0.0
2017-Apr-17 13:29N 26°04' W 080°08'0 0.0
2017-Apr-17 12:59N 26°04' W 080°08'0 0.0
2017-Apr-17 12:29N 26°04' W 080°08'0 0.0
2017-Apr-17 11:59N 26°04' W 080°08'0 0.0
2017-Apr-17 11:29N 26°04' W 080°08'0 0.0
2017-Apr-17 10:59N 26°04' W 080°08'0 0.0
2017-Apr-17 10:29N 26°04' W 080°08'0 0.0
2017-Apr-17 09:59N 26°04' W 080°08'0 0.0
2017-Apr-17 09:29N 26°04' W 080°08'0 0.0
2017-Apr-17 08:59N 26°04' W 080°08'0 0.0
2017-Apr-17 08:29N 26°04' W 080°08'0 0.0
2017-Apr-17 07:56N 26°04' W 080°08'0 0.0
2017-Apr-17 07:29N 26°04' W 080°08'0 0.0
2017-Apr-17 06:56N 26°04' W 080°08'0 0.0
2017-Apr-17 06:29N 26°04' W 080°08'0 0.0
2017-Apr-17 05:59N 26°04' W 080°08'0 0.0
2017-Apr-17 05:29N 26°04' W 080°08'0 0.0
2017-Apr-17 04:59N 26°04' W 080°08'0 0.0
2017-Apr-17 04:29N 26°04' W 080°08'0 0.0
2017-Apr-17 03:59N 26°04' W 080°08'0 0.0
2017-Apr-17 03:29N 26°04' W 080°08'0 0.0
2017-Apr-17 02:59N 26°04' W 080°08'0 0.0
2017-Apr-17 02:29N 26°04' W 080°08'0 0.0
2017-Apr-17 01:59N 26°04' W 080°08'0 0.0
2017-Apr-17 01:29N 26°04' W 080°08'0 0.0
2017-Apr-17 00:59N 26°04' W 080°08'0 0.0
2017-Apr-17 00:29N 26°04' W 080°08'0 0.0
2017-Apr-16 23:59N 26°04' W 080°08'0 0.0
2017-Apr-16 23:29N 26°04' W 080°08'0 0.0
2017-Apr-16 22:59N 26°04' W 080°08'0 0.0
2017-Apr-16 22:29N 26°04' W 080°08'0 0.0
2017-Apr-16 21:59N 26°04' W 080°08'0 0.0
2017-Apr-16 21:26N 26°04' W 080°08'0 0.0
2017-Apr-16 20:59N 26°04' W 080°08'0 0.0
2017-Apr-16 20:29N 26°04' W 080°08'0 0.0
2017-Apr-16 19:59N 26°04' W 080°08'0 0.0
2017-Apr-16 19:29N 26°04' W 080°08'0 0.0
2017-Apr-16 18:59N 26°04' W 080°08'0 0.0
2017-Apr-16 18:29N 26°04' W 080°08'0 0.0
2017-Apr-16 17:56N 26°04' W 080°08'0 0.0
2017-Apr-16 17:29N 26°04' W 080°08'0 0.0
2017-Apr-16 16:59N 26°04' W 080°08'0 0.0
2017-Apr-16 16:29N 26°04' W 080°08'0 0.0
2017-Apr-16 15:59N 26°04' W 080°08'0 0.0
2017-Apr-16 15:29N 26°04' W 080°08'0 0.0
2017-Apr-16 14:59N 26°04' W 080°08'0 0.0
2017-Apr-16 14:29N 26°04' W 080°08'0 0.0
2017-Apr-16 13:29N 26°04' W 080°08'0 0.0
2017-Apr-16 12:59N 26°04' W 080°08'0 0.0
2017-Apr-16 12:29N 26°04' W 080°08'0 0.0
2017-Apr-16 11:59N 26°04' W 080°08'0 0.0
2017-Apr-16 11:29N 26°04' W 080°08'0 0.0
2017-Apr-16 10:59N 26°04' W 080°08'0 0.0
2017-Apr-16 10:29N 26°04' W 080°08'0 0.0
2017-Apr-16 09:59N 26°04' W 080°08'  

Dump ship's entire track history